sensor_id;sensor_type;location;lat;lon;timestamp;pressure;altitude;pressure_sealevel;temperature;humidity
39301;BME280;25019;42.626;23.380;2023-02-21T00:02:17;94821.59;;;2.98;78.83
39301;BME280;25019;42.626;23.380;2023-02-21T00:05:01;94823.09;;;2.85;79.52
39301;BME280;25019;42.626;23.380;2023-02-21T00:07:45;94822.56;;;2.90;79.38
39301;BME280;25019;42.626;23.380;2023-02-21T00:10:30;94798.22;;;2.75;79.05
39301;BME280;25019;42.626;23.380;2023-02-21T00:13:14;94770.38;;;2.52;79.52
39301;BME280;25019;42.626;23.380;2023-02-21T00:15:58;94752.34;;;2.42;78.74
39301;BME280;25019;42.626;23.380;2023-02-21T00:18:42;94788.41;;;2.62;78.48
39301;BME280;25019;42.626;23.380;2023-02-21T00:21:27;94818.44;;;2.81;78.36
39301;BME280;25019;42.626;23.380;2023-02-21T00:24:13;94822.63;;;2.75;78.40
39301;BME280;25019;42.626;23.380;2023-02-21T00:26:58;94748.69;;;2.36;78.47
39301;BME280;25019;42.626;23.380;2023-02-21T00:29:42;94812.44;;;2.87;78.44
39301;BME280;25019;42.626;23.380;2023-02-21T00:32:26;94811.69;;;2.72;78.93
39301;BME280;25019;42.626;23.380;2023-02-21T00:35:10;94820.63;;;2.77;79.14
39301;BME280;25019;42.626;23.380;2023-02-21T00:37:55;94805.91;;;2.76;79.53
39301;BME280;25019;42.626;23.380;2023-02-21T00:40:39;94807.94;;;2.81;79.37
39301;BME280;25019;42.626;23.380;2023-02-21T00:43:28;94731.44;;;2.49;78.95
39301;BME280;25019;42.626;23.380;2023-02-21T00:46:13;94793.25;;;2.87;79.33
39301;BME280;25019;42.626;23.380;2023-02-21T00:48:57;94750.31;;;2.66;78.82
39301;BME280;25019;42.626;23.380;2023-02-21T00:51:42;94719.97;;;2.57;78.70
39301;BME280;25019;42.626;23.380;2023-02-21T00:54:26;94785.31;;;3.08;78.61
39301;BME280;25019;42.626;23.380;2023-02-21T00:57:10;94789.25;;;3.19;78.02
39301;BME280;25019;42.626;23.380;2023-02-21T00:59:55;94781.56;;;3.18;78.04
39301;BME280;25019;42.626;23.380;2023-02-21T01:02:40;94767.63;;;3.17;77.73
39301;BME280;25019;42.626;23.380;2023-02-21T01:05:24;94755.88;;;3.06;78.26
39301;BME280;25019;42.626;23.380;2023-02-21T01:08:08;94767.63;;;3.17;77.66
39301;BME280;25019;42.626;23.380;2023-02-21T01:10:53;94733.00;;;3.00;77.57
39301;BME280;25019;42.626;23.380;2023-02-21T01:13:38;94753.28;;;3.13;77.37
39301;BME280;25019;42.626;23.380;2023-02-21T01:16:22;94744.78;;;3.11;77.80
39301;BME280;25019;42.626;23.380;2023-02-21T01:19:06;94743.50;;;3.00;78.15
39301;BME280;25019;42.626;23.380;2023-02-21T01:21:50;94702.63;;;2.84;78.22
39301;BME280;25019;42.626;23.380;2023-02-21T01:24:35;94708.78;;;2.98;77.69
39301;BME280;25019;42.626;23.380;2023-02-21T01:27:19;94613.56;;;2.34;77.43
39301;BME280;25019;42.626;23.380;2023-02-21T01:30:03;94727.22;;;3.11;77.11
39301;BME280;25019;42.626;23.380;2023-02-21T01:32:48;94734.81;;;2.99;77.78
39301;BME280;25019;42.626;23.380;2023-02-21T01:35:32;94732.56;;;2.96;78.17
39301;BME280;25019;42.626;23.380;2023-02-21T01:38:16;94735.88;;;3.05;77.85
39301;BME280;25019;42.626;23.380;2023-02-21T01:41:01;94722.06;;;2.96;78.19
39301;BME280;25019;42.626;23.380;2023-02-21T01:43:59;94739.50;;;3.04;77.92
39301;BME280;25019;42.626;23.380;2023-02-21T01:46:43;94696.56;;;2.83;77.81
39301;BME280;25019;42.626;23.380;2023-02-21T01:49:28;94707.50;;;2.87;77.72
39301;BME280;25019;42.626;23.380;2023-02-21T01:52:12;94663.13;;;2.57;77.67
39301;BME280;25019;42.626;23.380;2023-02-21T01:54:56;94720.06;;;2.98;77.51
39301;BME280;25019;42.626;23.380;2023-02-21T01:57:44;94668.03;;;2.67;77.91
39301;BME280;25019;42.626;23.380;2023-02-21T02:00:30;94646.00;;;2.61;77.71
39301;BME280;25019;42.626;23.380;2023-02-21T02:03:18;94706.81;;;3.07;77.18
39301;BME280;25019;42.626;23.380;2023-02-21T02:06:06;94704.97;;;3.07;77.41
39301;BME280;25019;42.626;23.380;2023-02-21T02:08:51;94560.06;;;2.21;76.72
39301;BME280;25019;42.626;23.380;2023-02-21T02:18:21;94686.56;;;3.00;78.05
39301;BME280;25019;42.626;23.380;2023-02-21T02:34:52;94682.66;;;3.18;77.29
39301;BME280;25019;42.626;23.380;2023-02-21T02:37:30;94607.97;;;2.79;77.88
39301;BME280;25019;42.626;23.380;2023-02-21T02:40:27;94670.69;;;3.09;77.93
39301;BME280;25019;42.626;23.380;2023-02-21T02:43:15;94622.13;;;2.84;77.67
39301;BME280;25019;42.626;23.380;2023-02-21T02:45:52;94606.56;;;2.83;77.15
39301;BME280;25019;42.626;23.380;2023-02-21T02:48:24;94656.56;;;3.10;77.01
39301;BME280;25019;42.626;23.380;2023-02-21T02:50:53;94666.31;;;3.29;76.23
39301;BME280;25019;42.626;23.380;2023-02-21T02:53:24;94654.38;;;3.20;76.97
39301;BME280;25019;42.626;23.380;2023-02-21T02:55:56;94671.59;;;3.36;76.23
39301;BME280;25019;42.626;23.380;2023-02-21T02:58:30;94609.19;;;2.83;75.96
39301;BME280;25019;42.626;23.380;2023-02-21T03:09:42;94607.16;;;2.78;76.78
39301;BME280;25019;42.626;23.380;2023-02-21T03:12:56;94681.06;;;3.30;76.37
39301;BME280;25019;42.626;23.380;2023-02-21T03:15:59;94687.16;;;3.31;76.28
39301;BME280;25019;42.626;23.380;2023-02-21T03:18:50;94676.38;;;3.19;76.77
39301;BME280;25019;42.626;23.380;2023-02-21T03:21:21;94690.31;;;3.20;76.78
39301;BME280;25019;42.626;23.380;2023-02-21T03:23:50;94670.13;;;3.20;76.65
39301;BME280;25019;42.626;23.380;2023-02-21T03:26:17;94666.06;;;3.11;77.37
39301;BME280;25019;42.626;23.380;2023-02-21T03:28:47;94622.94;;;2.85;76.57
39301;BME280;25019;42.626;23.380;2023-02-21T03:31:16;94625.56;;;2.85;77.29
39301;BME280;25019;42.626;23.380;2023-02-21T03:33:44;94668.22;;;3.07;77.32
39301;BME280;25019;42.626;23.380;2023-02-21T03:36:09;94663.41;;;3.04;76.86
39301;BME280;25019;42.626;23.380;2023-02-21T03:38:35;94649.16;;;2.85;78.06
39301;BME280;25019;42.626;23.380;2023-02-21T03:41:01;94641.91;;;2.87;77.79
39301;BME280;25019;42.626;23.380;2023-02-21T03:43:28;94604.84;;;2.62;77.36
39301;BME280;25019;42.626;23.380;2023-02-21T03:45:58;94663.34;;;2.97;78.06
39301;BME280;25019;42.626;23.380;2023-02-21T03:48:26;94653.84;;;2.96;78.07
39301;BME280;25019;42.626;23.380;2023-02-21T03:50:53;94642.09;;;2.85;78.63
39301;BME280;25019;42.626;23.380;2023-02-21T03:53:19;94579.19;;;2.50;78.12
39301;BME280;25019;42.626;23.380;2023-02-21T03:55:45;94670.38;;;2.90;78.08
39301;BME280;25019;42.626;23.380;2023-02-21T03:58:17;94659.63;;;2.78;78.62
39301;BME280;25019;42.626;23.380;2023-02-21T04:00:43;94683.31;;;2.92;78.58
39301;BME280;25019;42.626;23.380;2023-02-21T04:03:09;94657.00;;;2.78;78.80
39301;BME280;25019;42.626;23.380;2023-02-21T04:05:42;94678.44;;;2.89;78.92
39301;BME280;25019;42.626;23.380;2023-02-21T04:08:09;94666.44;;;2.73;79.04
39301;BME280;25019;42.626;23.380;2023-02-21T04:10:34;94689.88;;;2.74;79.26
39301;BME280;25019;42.626;23.380;2023-02-21T04:13:00;94601.16;;;2.21;79.48
39301;BME280;25019;42.626;23.380;2023-02-21T04:15:29;94611.06;;;2.25;79.54
39301;BME280;25019;42.626;23.380;2023-02-21T04:17:56;94678.50;;;2.67;79.81
39301;BME280;25019;42.626;23.380;2023-02-21T04:20:21;94680.72;;;2.63;79.53
39301;BME280;25019;42.626;23.380;2023-02-21T04:22:51;94671.88;;;2.71;79.23
39301;BME280;25019;42.626;23.380;2023-02-21T04:25:18;94589.19;;;2.12;78.82
39301;BME280;25019;42.626;23.380;2023-02-21T04:27:50;94691.09;;;2.78;79.10
39301;BME280;25019;42.626;23.380;2023-02-21T04:30:17;94635.81;;;2.45;78.79
39301;BME280;25019;42.626;23.380;2023-02-21T04:32:43;94619.13;;;2.24;78.06
39301;BME280;25019;42.626;23.380;2023-02-21T04:35:12;94708.50;;;2.86;78.47
39301;BME280;25019;42.626;23.380;2023-02-21T04:37:38;94649.91;;;2.44;78.50
39301;BME280;25019;42.626;23.380;2023-02-21T04:40:04;94710.47;;;2.77;78.64
39301;BME280;25019;42.626;23.380;2023-02-21T04:42:33;94712.47;;;2.75;78.38
39301;BME280;25019;42.626;23.380;2023-02-21T04:44:58;94702.38;;;2.72;78.96
39301;BME280;25019;42.626;23.380;2023-02-21T04:47:24;94706.59;;;2.73;79.00
39301;BME280;25019;42.626;23.380;2023-02-21T04:49:50;94704.97;;;2.72;79.05
39301;BME280;25019;42.626;23.380;2023-02-21T04:52:17;94707.41;;;2.74;79.38
39301;BME280;25019;42.626;23.380;2023-02-21T04:54:46;94703.16;;;2.73;79.41
39301;BME280;25019;42.626;23.380;2023-02-21T04:57:12;94703.78;;;2.75;79.54
39301;BME280;25019;42.626;23.380;2023-02-21T04:59:38;94584.28;;;2.02;78.90
39301;BME280;25019;42.626;23.380;2023-02-21T05:02:04;94695.28;;;2.73;79.25
39301;BME280;25019;42.626;23.380;2023-02-21T05:04:31;94618.75;;;2.27;80.10
39301;BME280;25019;42.626;23.380;2023-02-21T05:06:58;94651.53;;;2.45;80.13
39301;BME280;25019;42.626;23.380;2023-02-21T05:09:24;94604.78;;;2.20;79.68
39301;BME280;25019;42.626;23.380;2023-02-21T05:11:49;94666.59;;;2.64;80.09
39301;BME280;25019;42.626;23.380;2023-02-21T05:14:15;94650.78;;;2.51;80.32
39301;BME280;25019;42.626;23.380;2023-02-21T05:16:42;94661.38;;;2.64;80.08
39301;BME280;25019;42.626;23.380;2023-02-21T05:19:09;94605.44;;;2.29;79.94
39301;BME280;25019;42.626;23.380;2023-02-21T05:21:35;94664.81;;;2.72;80.21
39301;BME280;25019;42.626;23.380;2023-02-21T05:24:04;94573.09;;;2.15;79.36
39301;BME280;25019;42.626;23.380;2023-02-21T05:26:34;94662.81;;;2.74;79.23
39301;BME280;25019;42.626;23.380;2023-02-21T05:29:00;94660.00;;;2.75;79.00
39301;BME280;25019;42.626;23.380;2023-02-21T05:31:26;94651.09;;;2.69;78.69
39301;BME280;25019;42.626;23.380;2023-02-21T05:33:51;94661.53;;;2.63;79.25
39301;BME280;25019;42.626;23.380;2023-02-21T05:36:17;94660.84;;;2.47;79.83
39301;BME280;25019;42.626;23.380;2023-02-21T05:38:48;94679.19;;;2.47;80.28
39301;BME280;25019;42.626;23.380;2023-02-21T05:41:16;94637.59;;;2.16;80.44
39301;BME280;25019;42.626;23.380;2023-02-21T05:43:46;94658.59;;;2.44;80.42
39301;BME280;25019;42.626;23.380;2023-02-21T05:46:32;94614.88;;;2.23;79.52
39301;BME280;25019;42.626;23.380;2023-02-21T05:49:00;94666.16;;;2.61;79.12
39301;BME280;25019;42.626;23.380;2023-02-21T05:51:27;94618.78;;;2.34;79.40
39301;BME280;25019;42.626;23.380;2023-02-21T05:53:53;94662.38;;;2.63;79.42
39301;BME280;25019;42.626;23.380;2023-02-21T05:56:20;94676.97;;;2.79;79.22
39301;BME280;25019;42.626;23.380;2023-02-21T05:58:46;94694.06;;;3.04;78.59
39301;BME280;25019;42.626;23.380;2023-02-21T06:01:11;94664.59;;;3.02;78.42
39301;BME280;25019;42.626;23.380;2023-02-21T06:03:37;94603.31;;;2.74;77.45
39301;BME280;25019;42.626;23.380;2023-02-21T06:06:03;94630.84;;;2.98;77.03
39301;BME280;25019;42.626;23.380;2023-02-21T06:08:28;94684.16;;;3.41;77.04
39301;BME280;25019;42.626;23.380;2023-02-21T06:10:54;94690.03;;;3.56;76.05
39301;BME280;25019;42.626;23.380;2023-02-21T06:13:20;94623.91;;;3.26;75.77
39301;BME280;25019;42.626;23.380;2023-02-21T06:15:45;94687.28;;;3.78;75.82
39301;BME280;25019;42.626;23.380;2023-02-21T06:18:15;94641.38;;;3.54;74.82
39301;BME280;25019;42.626;23.380;2023-02-21T06:20:41;94689.34;;;3.96;74.37
39301;BME280;25019;42.626;23.380;2023-02-21T06:23:08;94691.81;;;4.18;76.02
39301;BME280;25019;42.626;23.380;2023-02-21T06:25:33;94709.00;;;4.27;73.79
39301;BME280;25019;42.626;23.380;2023-02-21T06:27:59;94702.72;;;4.35;73.24
39301;BME280;25019;42.626;23.380;2023-02-21T06:30:24;94647.91;;;4.18;75.78
39301;BME280;25019;42.626;23.380;2023-02-21T06:32:50;94665.50;;;4.52;73.58
39301;BME280;25019;42.626;23.380;2023-02-21T06:35:16;94705.34;;;4.82;71.21
39301;BME280;25019;42.626;23.380;2023-02-21T06:37:41;94713.03;;;4.97;71.17
39301;BME280;25019;42.626;23.380;2023-02-21T06:40:07;94718.69;;;5.07;70.99
39301;BME280;25019;42.626;23.380;2023-02-21T06:42:33;94677.19;;;4.89;70.58
39301;BME280;25019;42.626;23.380;2023-02-21T06:44:59;94714.16;;;5.28;69.00
39301;BME280;25019;42.626;23.380;2023-02-21T06:47:24;94724.50;;;5.30;68.93
39301;BME280;25019;42.626;23.380;2023-02-21T06:49:50;94724.25;;;5.38;68.52
39301;BME280;25019;42.626;23.380;2023-02-21T06:52:16;94710.06;;;5.39;68.28
39301;BME280;25019;42.626;23.380;2023-02-21T06:54:41;94701.78;;;5.35;67.97
39301;BME280;25019;42.626;23.380;2023-02-21T06:57:07;94707.22;;;5.47;67.80
39301;BME280;25019;42.626;23.380;2023-02-21T06:59:32;94697.31;;;5.43;67.80
39301;BME280;25019;42.626;23.380;2023-02-21T07:01:58;94644.75;;;5.16;67.62
39301;BME280;25019;42.626;23.380;2023-02-21T07:04:24;94715.47;;;5.64;67.36
39301;BME280;25019;42.626;23.380;2023-02-21T07:06:51;94646.91;;;5.32;67.13
39301;BME280;25019;42.626;23.380;2023-02-21T07:09:17;94701.66;;;5.69;66.65
39301;BME280;25019;42.626;23.380;2023-02-21T07:11:42;94715.81;;;5.81;66.64
39301;BME280;25019;42.626;23.380;2023-02-21T07:14:11;94658.34;;;5.58;66.35
39301;BME280;25019;42.626;23.380;2023-02-21T07:16:37;94705.13;;;6.08;65.44
39301;BME280;25019;42.626;23.380;2023-02-21T07:19:03;94706.47;;;6.18;66.04
39301;BME280;25019;42.626;23.380;2023-02-21T07:21:28;94705.97;;;6.34;64.71
39301;BME280;25019;42.626;23.380;2023-02-21T07:23:54;94653.44;;;6.00;64.49
39301;BME280;25019;42.626;23.380;2023-02-21T07:26:20;94622.53;;;5.82;63.14
39301;BME280;25019;42.626;23.380;2023-02-21T07:28:49;94699.22;;;6.45;63.64
39301;BME280;25019;42.626;23.380;2023-02-21T07:31:15;94711.16;;;6.48;63.28
39301;BME280;25019;42.626;23.380;2023-02-21T07:33:41;94654.88;;;6.28;63.75
39301;BME280;25019;42.626;23.380;2023-02-21T07:36:07;94693.00;;;6.58;63.40
39301;BME280;25019;42.626;23.380;2023-02-21T07:38:33;94693.78;;;6.65;62.68
39301;BME280;25019;42.626;23.380;2023-02-21T07:41:00;94689.53;;;6.64;62.69
39301;BME280;25019;42.626;23.380;2023-02-21T07:43:27;94683.25;;;6.58;62.75
39301;BME280;25019;42.626;23.380;2023-02-21T07:45:54;94683.41;;;6.64;62.01
39301;BME280;25019;42.626;23.380;2023-02-21T07:48:20;94683.91;;;6.54;61.90
39301;BME280;25019;42.626;23.380;2023-02-21T07:50:46;94673.09;;;6.62;62.08
39301;BME280;25019;42.626;23.380;2023-02-21T07:53:13;94683.34;;;6.70;62.03
39301;BME280;25019;42.626;23.380;2023-02-21T07:55:39;94680.34;;;6.67;62.46
39301;BME280;25019;42.626;23.380;2023-02-21T07:58:05;94677.22;;;6.77;61.96
39301;BME280;25019;42.626;23.380;2023-02-21T08:00:31;94673.78;;;6.76;61.38
39301;BME280;25019;42.626;23.380;2023-02-21T08:02:57;94675.69;;;6.87;61.52
39301;BME280;25019;42.626;23.380;2023-02-21T08:05:23;94604.50;;;6.37;61.72
39301;BME280;25019;42.626;23.380;2023-02-21T08:07:49;94670.63;;;6.86;61.07
39301;BME280;25019;42.626;23.380;2023-02-21T08:10:23;94671.22;;;6.88;61.70
39301;BME280;25019;42.626;23.380;2023-02-21T08:12:49;94680.41;;;7.04;61.29
39301;BME280;25019;42.626;23.380;2023-02-21T08:15:14;94667.22;;;7.04;61.64
39301;BME280;25019;42.626;23.380;2023-02-21T08:17:40;94680.69;;;7.14;61.51
39301;BME280;25019;42.626;23.380;2023-02-21T08:20:06;94670.88;;;7.22;61.05
39301;BME280;25019;42.626;23.380;2023-02-21T08:22:32;94682.84;;;7.24;60.90
39301;BME280;25019;42.626;23.380;2023-02-21T08:24:58;94671.97;;;7.32;59.91
39301;BME280;25019;42.626;23.380;2023-02-21T08:27:23;94673.66;;;7.45;60.46
39301;BME280;25019;42.626;23.380;2023-02-21T08:29:51;94669.91;;;7.53;59.38
39301;BME280;25019;42.626;23.380;2023-02-21T08:32:18;94658.19;;;7.49;59.77
39301;BME280;25019;42.626;23.380;2023-02-21T08:34:45;94654.28;;;7.52;58.98
39301;BME280;25019;42.626;23.380;2023-02-21T08:37:11;94655.59;;;7.61;59.23
39301;BME280;25019;42.626;23.380;2023-02-21T08:39:50;94625.09;;;7.58;59.08
39301;BME280;25019;42.626;23.380;2023-02-21T08:42:17;94586.25;;;7.47;58.89
39301;BME280;25019;42.626;23.380;2023-02-21T08:44:44;94629.69;;;7.82;58.37
39301;BME280;25019;42.626;23.380;2023-02-21T08:47:11;94641.81;;;8.01;58.29
39301;BME280;25019;42.626;23.380;2023-02-21T08:49:36;94633.91;;;8.13;58.14
39301;BME280;25019;42.626;23.380;2023-02-21T08:52:07;94594.66;;;7.98;56.92
39301;BME280;25019;42.626;23.380;2023-02-21T08:54:33;94654.06;;;8.26;56.80
39301;BME280;25019;42.626;23.380;2023-02-21T08:56:58;94591.34;;;8.03;56.68
39301;BME280;25019;42.626;23.380;2023-02-21T08:59:25;94644.75;;;8.35;56.69
39301;BME280;25019;42.626;23.380;2023-02-21T09:01:53;94646.03;;;8.33;56.21
39301;BME280;25019;42.626;23.380;2023-02-21T09:04:18;94637.28;;;8.32;56.97
39301;BME280;25019;42.626;23.380;2023-02-21T09:06:44;94651.59;;;8.55;55.97
39301;BME280;25019;42.626;23.380;2023-02-21T09:09:09;94575.25;;;8.16;56.15
39301;BME280;25019;42.626;23.380;2023-02-21T09:11:35;94631.81;;;8.58;56.00
39301;BME280;25019;42.626;23.380;2023-02-21T09:14:00;94583.44;;;8.38;55.88
39301;BME280;25019;42.626;23.380;2023-02-21T09:16:31;94636.78;;;8.90;55.73
39301;BME280;25019;42.626;23.380;2023-02-21T09:18:58;94627.53;;;8.92;55.11
39301;BME280;25019;42.626;23.380;2023-02-21T09:21:26;94621.78;;;9.07;54.94
39301;BME280;25019;42.626;23.380;2023-02-21T09:23:53;94627.75;;;9.14;54.98
39301;BME280;25019;42.626;23.380;2023-02-21T09:26:19;94569.03;;;8.94;54.75
39301;BME280;25019;42.626;23.380;2023-02-21T09:28:49;94612.00;;;9.37;54.63
39301;BME280;25019;42.626;23.380;2023-02-21T09:31:14;94621.22;;;9.46;54.74
39301;BME280;25019;42.626;23.380;2023-02-21T09:33:40;94611.50;;;9.52;53.90
39301;BME280;25019;42.626;23.380;2023-02-21T09:36:07;94601.94;;;9.51;53.97
39301;BME280;25019;42.626;23.380;2023-02-21T09:38:33;94549.78;;;9.39;54.23
39301;BME280;25019;42.626;23.380;2023-02-21T09:41:01;94607.72;;;9.77;53.14
39301;BME280;25019;42.626;23.380;2023-02-21T09:43:33;94598.81;;;9.83;52.06
39301;BME280;25019;42.626;23.380;2023-02-21T09:46:04;94607.19;;;9.92;52.56
39301;BME280;25019;42.626;23.380;2023-02-21T09:48:31;94539.59;;;9.48;52.39
39301;BME280;25019;42.626;23.380;2023-02-21T09:50:59;94597.97;;;9.94;52.18
39301;BME280;25019;42.626;23.380;2023-02-21T09:53:28;94593.63;;;10.05;51.58
39301;BME280;25019;42.626;23.380;2023-02-21T09:56:01;94540.38;;;9.78;51.21
39301;BME280;25019;42.626;23.380;2023-02-21T09:58:28;94593.88;;;10.20;50.83
39301;BME280;25019;42.626;23.380;2023-02-21T10:00:59;94545.28;;;9.86;51.60
39301;BME280;25019;42.626;23.380;2023-02-21T10:06:25;94572.31;;;10.34;51.31
39301;BME280;25019;42.626;23.380;2023-02-21T10:17:21;94568.88;;;10.90;49.34
39301;BME280;25019;42.626;23.380;2023-02-21T10:19:52;94558.50;;;11.11;47.99
39301;BME280;25019;42.626;23.380;2023-02-21T10:22:30;94497.38;;;10.88;47.99
39301;BME280;25019;42.626;23.380;2023-02-21T10:24:59;94543.41;;;11.38;47.72
39301;BME280;25019;42.626;23.380;2023-02-21T10:27:29;94484.72;;;11.18;47.38
39301;BME280;25019;42.626;23.380;2023-02-21T10:30:04;94535.25;;;11.73;46.27
39301;BME280;25019;42.626;23.380;2023-02-21T10:32:33;94526.84;;;11.86;45.76
39301;BME280;25019;42.626;23.380;2023-02-21T10:34:58;94528.81;;;11.96;45.29
39301;BME280;25019;42.626;23.380;2023-02-21T10:37:46;94513.84;;;12.22;44.55
39301;BME280;25019;42.626;23.380;2023-02-21T10:43:13;94436.94;;;12.26;41.50
39301;BME280;25019;42.626;23.380;2023-02-21T10:51:41;94479.16;;;13.13;39.24
39301;BME280;25019;42.626;23.380;2023-02-21T10:54:22;94423.88;;;12.88;38.23
39301;BME280;25019;42.626;23.380;2023-02-21T10:56:49;94468.00;;;13.37;38.04
39301;BME280;25019;42.626;23.380;2023-02-21T10:59:31;94484.09;;;13.68;37.68
39301;BME280;25019;42.626;23.380;2023-02-21T11:01:58;94471.56;;;13.79;37.38
39301;BME280;25019;42.626;23.380;2023-02-21T11:04:27;94469.44;;;13.91;37.21
39301;BME280;25019;42.626;23.380;2023-02-21T11:07:12;94464.88;;;13.97;36.16
39301;BME280;25019;42.626;23.380;2023-02-21T11:09:41;94456.88;;;14.07;35.76
39301;BME280;25019;42.626;23.380;2023-02-21T11:14:35;94449.06;;;14.32;35.66
39301;BME280;25019;42.626;23.380;2023-02-21T11:17:05;94453.28;;;14.59;33.88
39301;BME280;25019;42.626;23.380;2023-02-21T11:19:50;94431.84;;;14.85;32.11
39301;BME280;25019;42.626;23.380;2023-02-21T11:22:34;94367.78;;;14.53;32.03
39301;BME280;25019;42.626;23.380;2023-02-21T11:25:04;94436.59;;;15.03;31.68
39301;BME280;25019;42.626;23.380;2023-02-21T11:27:33;94421.50;;;15.18;31.10
39301;BME280;25019;42.626;23.380;2023-02-21T11:30:02;94422.63;;;15.11;30.98
39301;BME280;25019;42.626;23.380;2023-02-21T11:32:35;94416.38;;;15.26;30.88
39301;BME280;25019;42.626;23.380;2023-02-21T11:37:57;94410.94;;;15.42;30.90
39301;BME280;25019;42.626;23.380;2023-02-21T11:43:09;94370.28;;;15.40;30.37
39301;BME280;25019;42.626;23.380;2023-02-21T11:45:37;94396.31;;;15.64;30.29
39301;BME280;25019;42.626;23.380;2023-02-21T11:48:13;94351.53;;;15.40;30.28
39301;BME280;25019;42.626;23.380;2023-02-21T11:50:45;94387.41;;;15.73;30.42
39301;BME280;25019;42.626;23.380;2023-02-21T11:53:26;94366.84;;;15.69;30.26
39301;BME280;25019;42.626;23.380;2023-02-21T11:56:05;94367.91;;;15.68;30.27
39301;BME280;25019;42.626;23.380;2023-02-21T12:01:26;94354.16;;;15.80;30.20
39301;BME280;25019;42.626;23.380;2023-02-21T12:04:45;94334.19;;;15.67;30.38
39301;BME280;25019;42.626;23.380;2023-02-21T12:07:22;94312.25;;;15.65;30.38
39301;BME280;25019;42.626;23.380;2023-02-21T12:12:47;94343.81;;;16.27;30.26
39301;BME280;25019;42.626;23.380;2023-02-21T12:21:16;94313.25;;;16.03;29.98
39301;BME280;25019;42.626;23.380;2023-02-21T12:46:48;94311.44;;;15.99;30.55
39301;BME280;25019;42.626;23.380;2023-02-21T12:49:33;94308.66;;;16.04;30.98
39301;BME280;25019;42.626;23.380;2023-02-21T12:52:47;94311.53;;;16.13;30.64
39301;BME280;25019;42.626;23.380;2023-02-21T12:55:20;94308.56;;;16.14;30.43
39301;BME280;25019;42.626;23.380;2023-02-21T12:57:52;94289.03;;;16.14;30.29
39301;BME280;25019;42.626;23.380;2023-02-21T13:00:28;94308.41;;;16.30;30.52
39301;BME280;25019;42.626;23.380;2023-02-21T13:03:05;94275.53;;;16.19;29.89
39301;BME280;25019;42.626;23.380;2023-02-21T13:05:38;94290.59;;;16.39;30.18
39301;BME280;25019;42.626;23.380;2023-02-21T13:08:16;94281.31;;;16.31;29.98
39301;BME280;25019;42.626;23.380;2023-02-21T13:13:36;94278.56;;;16.37;30.00
39301;BME280;25019;42.626;23.380;2023-02-21T13:16:10;94281.53;;;16.54;29.95
39301;BME280;25019;42.626;23.380;2023-02-21T13:19:02;94276.91;;;16.60;29.25
39301;BME280;25019;42.626;23.380;2023-02-21T13:21:49;94277.16;;;16.63;29.44
39301;BME280;25019;42.626;23.380;2023-02-21T13:27:46;94277.22;;;16.77;29.18
39301;BME280;25019;42.626;23.380;2023-02-21T13:30:21;94279.75;;;16.88;29.23
39301;BME280;25019;42.626;23.380;2023-02-21T13:32:56;94270.41;;;16.85;29.17
39301;BME280;25019;42.626;23.380;2023-02-21T13:35:35;94269.63;;;16.85;29.25
39301;BME280;25019;42.626;23.380;2023-02-21T13:38:04;94267.06;;;16.93;29.30
39301;BME280;25019;42.626;23.380;2023-02-21T13:40:37;94268.00;;;17.03;29.21
39301;BME280;25019;42.626;23.380;2023-02-21T13:43:12;94264.16;;;17.09;28.95
39301;BME280;25019;42.626;23.380;2023-02-21T13:45:41;94244.38;;;17.05;28.73
39301;BME280;25019;42.626;23.380;2023-02-21T13:55:34;94237.88;;;17.25;28.54
39301;BME280;25019;42.626;23.380;2023-02-21T14:16:07;94250.78;;;17.70;28.27
39301;BME280;25019;42.626;23.380;2023-02-21T14:18:48;94241.84;;;17.75;28.36
39301;BME280;25019;42.626;23.380;2023-02-21T14:21:23;94243.66;;;17.79;28.00
39301;BME280;25019;42.626;23.380;2023-02-21T14:29:42;94240.28;;;18.02;27.55
39301;BME280;25019;42.626;23.380;2023-02-21T14:34:41;94235.47;;;17.85;28.35
39301;BME280;25019;42.626;23.380;2023-02-21T14:39:54;94221.34;;;17.65;28.61
39301;BME280;25019;42.626;23.380;2023-02-21T14:42:45;94238.88;;;17.29;28.32
39301;BME280;25019;42.626;23.380;2023-02-21T15:02:17;94233.34;;;17.40;27.34
39301;BME280;25019;42.626;23.380;2023-02-21T15:10:26;94230.88;;;17.10;27.25
39301;BME280;25019;42.626;23.380;2023-02-21T15:13:01;94241.63;;;17.10;27.63
39301;BME280;25019;42.626;23.380;2023-02-21T15:15:45;94236.28;;;17.24;27.57
39301;BME280;25019;42.626;23.380;2023-02-21T15:18:24;94235.09;;;16.97;27.63
39301;BME280;25019;42.626;23.380;2023-02-21T15:23:38;94239.88;;;16.62;27.97
39301;BME280;25019;42.626;23.380;2023-02-21T15:26:25;94230.78;;;16.44;28.03
39301;BME280;25019;42.626;23.380;2023-02-21T15:29:12;94233.44;;;16.25;28.48
39301;BME280;25019;42.626;23.380;2023-02-21T15:31:41;94169.25;;;15.71;28.61
39301;BME280;25019;42.626;23.380;2023-02-21T15:34:29;94130.38;;;15.30;28.83
39301;BME280;25019;42.626;23.380;2023-02-21T15:37:23;94242.13;;;15.92;29.02
39301;BME280;25019;42.626;23.380;2023-02-21T15:39:52;94224.66;;;15.70;29.45
39301;BME280;25019;42.626;23.380;2023-02-21T15:42:19;94251.72;;;15.69;29.49
39301;BME280;25019;42.626;23.380;2023-02-21T15:44:50;94256.13;;;15.54;30.06
39301;BME280;25019;42.626;23.380;2023-02-21T15:47:27;94208.50;;;14.97;30.80
39301;BME280;25019;42.626;23.380;2023-02-21T15:50:17;94261.84;;;15.18;31.18
39301;BME280;25019;42.626;23.380;2023-02-21T15:52:49;94260.63;;;15.00;31.69
39301;BME280;25019;42.626;23.380;2023-02-21T16:00:26;94268.19;;;14.37;33.95
39301;BME280;25019;42.626;23.380;2023-02-21T16:03:32;94260.56;;;14.15;34.40
39301;BME280;25019;42.626;23.380;2023-02-21T16:06:21;94268.91;;;13.98;34.91
39301;BME280;25019;42.626;23.380;2023-02-21T16:09:03;94267.09;;;13.78;35.33
39301;BME280;25019;42.626;23.380;2023-02-21T16:11:39;94269.00;;;13.62;35.65
39301;BME280;25019;42.626;23.380;2023-02-21T16:14:18;94276.50;;;13.44;36.06